Time;durP1;ratioP1;P1;durP2;ratioP2;P2;SDS_P1;SDS_P2;PMS_P1;PMS_P2;Temp;Humidity;BMP_temperature;BMP_pressure;BME280_temperature;BME280_humidity;BME280_pressure;Samples;Min_cycle;Max_cycle;Signal;HPM_P1;HPM_P2
2022/04/05 00:00:18;;;;;;;16.08;14.48;;;4.30;99.90;;;;;;5011915;28;20051;-71
2022/04/05 00:02:43;;;;;;;15.95;14.45;;;4.30;99.90;;;;;;5017886;28;20145;-72
2022/04/05 00:05:09;;;;;;;16.80;15.18;;;4.30;99.90;;;;;;5046459;28;20025;-72
2022/04/05 00:07:35;;;;;;;16.70;14.68;;;4.30;99.90;;;;;;5014304;28;20527;-72
2022/04/05 00:10:00;;;;;;;16.38;14.60;;;4.30;99.90;;;;;;4994389;28;20022;-72
2022/04/05 00:12:26;;;;;;;16.00;14.45;;;4.30;99.90;;;;;;4994111;28;20048;-72
2022/04/05 00:14:52;;;;;;;16.33;14.55;;;4.50;99.90;;;;;;4994190;28;20376;-73
2022/04/05 00:17:18;;;;;;;15.57;13.98;;;4.40;99.90;;;;;;4994285;28;20404;-72
2022/04/05 00:19:44;;;;;;;16.60;14.93;;;4.40;99.90;;;;;;4994284;28;20018;-73
2022/04/05 00:22:09;;;;;;;15.88;14.23;;;4.40;99.90;;;;;;5011569;28;20435;-73
2022/04/05 00:24:35;;;;;;;14.95;13.50;;;4.60;99.90;;;;;;5024084;28;20100;-73
2022/04/05 00:27:00;;;;;;;16.55;14.48;;;4.50;99.90;;;;;;5012664;28;20415;-73
2022/04/05 00:29:26;;;;;;;15.13;13.63;;;4.40;99.90;;;;;;5011848;28;20125;-73
2022/04/05 00:31:52;;;;;;;15.48;13.88;;;4.40;99.90;;;;;;5014062;28;20030;-73
2022/04/05 00:34:18;;;;;;;14.93;13.60;;;4.40;99.90;;;;;;5011805;28;20034;-72
2022/04/05 00:36:45;;;;;;;14.93;13.43;;;4.30;99.90;;;;;;5011701;28;20053;-72
2022/04/05 00:39:11;;;;;;;15.80;14.23;;;4.40;99.90;;;;;;5011777;28;20022;-72
2022/04/05 00:41:36;;;;;;;15.18;13.60;;;4.40;99.90;;;;;;4993817;28;20061;-73
2022/04/05 00:44:02;;;;;;;16.13;14.27;;;4.50;99.90;;;;;;5013983;28;20103;-73
2022/04/05 00:46:28;;;;;;;15.25;13.68;;;4.50;99.90;;;;;;5015509;28;20398;-71
2022/04/05 00:48:59;;;;;;;15.48;14.07;;;4.50;99.90;;;;;;5015563;28;20033;-72
2022/04/05 00:51:26;;;;;;;14.77;13.18;;;4.50;99.90;;;;;;5015292;28;20080;-72
2022/04/05 00:53:53;;;;;;;14.25;12.82;;;4.50;99.90;;;;;;4997884;28;20033;-72
2022/04/05 00:56:21;;;;;;;14.20;12.80;;;4.50;99.90;;;;;;4998282;28;20033;-72
2022/04/05 00:58:49;;;;;;;13.90;12.50;;;4.50;99.90;;;;;;5015703;28;20057;-72
2022/04/05 01:01:18;;;;;;;14.45;12.95;;;4.60;99.90;;;;;;5035229;28;20021;-72
2022/04/05 01:03:49;;;;;;;15.55;12.63;;;4.60;99.90;;;;;;5026318;28;20108;-72
2022/04/05 01:06:19;;;;;;;14.20;12.80;;;4.60;99.90;;;;;;5015379;28;20030;-73
2022/04/05 01:08:49;;;;;;;14.18;12.65;;;4.60;99.90;;;;;;4997431;28;20555;-73
2022/04/05 01:11:14;;;;;;;13.68;12.38;;;4.60;99.90;;;;;;5015074;28;20029;-73
2022/04/05 01:13:41;;;;;;;13.43;12.07;;;4.60;99.90;;;;;;5015100;28;20438;-73
2022/04/05 01:16:07;;;;;;;13.05;11.85;;;4.60;99.90;;;;;;5014964;28;20046;-72
2022/04/05 01:18:33;;;;;;;13.18;11.88;;;4.60;99.90;;;;;;5014996;28;20034;-72
2022/04/05 01:21:00;;;;;;;12.98;11.75;;;4.60;99.90;;;;;;5014941;28;20499;-72
2022/04/05 01:23:26;;;;;;;14.25;12.85;;;4.60;99.90;;;;;;5017773;28;20037;-72
2022/04/05 01:25:52;;;;;;;13.85;12.65;;;4.60;99.90;;;;;;5025210;28;20025;-71
2022/04/05 01:28:19;;;;;;;14.75;13.25;;;4.60;99.90;;;;;;4997394;28;20400;-71
2022/04/05 01:30:44;;;;;;;14.60;13.13;;;4.50;99.90;;;;;;5014583;28;20061;-70
2022/04/05 01:33:10;;;;;;;15.55;13.00;;;4.60;99.90;;;;;;5017226;28;20072;-73
2022/04/05 01:35:35;;;;;;;14.88;13.32;;;4.40;99.90;;;;;;5014829;28;20041;-72
2022/04/05 01:38:04;;;;;;;15.10;13.60;;;4.50;99.90;;;;;;5031944;28;20117;-72
2022/04/05 01:40:30;;;;;;;15.75;14.20;;;4.30;99.90;;;;;;5032734;28;20025;-72
2022/04/05 01:42:56;;;;;;;15.48;13.98;;;4.20;99.90;;;;;;5022740;28;20026;-72
2022/04/05 01:45:21;;;;;;;17.13;15.35;;;4.30;99.90;;;;;;5020657;28;20041;-72
2022/04/05 01:47:47;;;;;;;16.70;14.95;;;4.20;99.90;;;;;;5048922;28;20021;-72
2022/04/05 01:50:13;;;;;;;17.65;15.88;;;4.00;99.90;;;;;;5014352;28;20036;-73
2022/04/05 01:52:39;;;;;;;18.65;16.70;;;4.00;99.90;;;;;;4996683;28;20025;-73
2022/04/05 01:55:06;;;;;;;18.50;16.60;;;3.90;99.90;;;;;;4996984;28;20030;-72
2022/04/05 01:57:31;;;;;;;18.45;16.42;;;3.90;99.90;;;;;;5010140;28;20068;-72
2022/04/05 01:59:57;;;;;;;19.70;17.70;;;3.90;99.90;;;;;;5022600;28;20029;-73
2022/04/05 02:02:22;;;;;;;19.55;17.55;;;3.90;99.90;;;;;;5042076;28;20100;-72
2022/04/05 02:04:48;;;;;;;18.73;16.92;;;4.00;99.90;;;;;;5014088;28;20056;-73
2022/04/05 02:07:15;;;;;;;18.17;16.48;;;3.80;99.90;;;;;;5014071;28;20022;-72
2022/04/05 02:09:42;;;;;;;19.65;17.55;;;3.80;99.90;;;;;;4996571;28;20030;-72
2022/04/05 02:12:09;;;;;;;19.27;17.38;;;3.80;99.90;;;;;;5013751;28;20022;-72
2022/04/05 02:14:36;;;;;;;20.27;18.17;;;3.80;99.90;;;;;;5016188;28;20195;-72
2022/04/05 02:17:02;;;;;;;20.17;17.95;;;3.80;99.90;;;;;;5038176;28;20041;-72
2022/04/05 02:19:27;;;;;;;23.70;18.15;;;3.90;99.90;;;;;;5036275;28;20546;-75
2022/04/05 02:21:53;;;;;;;19.33;17.50;;;3.80;99.90;;;;;;4996227;28;20499;-74
2022/04/05 02:24:19;;;;;;;20.17;18.27;;;3.80;99.90;;;;;;5024007;28;20363;-75
2022/04/05 02:26:44;;;;;;;20.45;18.35;;;4.00;99.90;;;;;;5016582;28;20487;-75
2022/04/05 02:29:10;;;;;;;21.83;19.67;;;3.80;99.90;;;;;;5015567;28;20026;-75
2022/04/05 02:31:35;;;;;;;21.42;19.23;;;3.80;99.90;;;;;;5038309;28;20022;-74
2022/04/05 02:34:01;;;;;;;21.27;19.15;;;3.80;99.90;;;;;;5030054;28;20038;-74
2022/04/05 02:36:26;;;;;;;20.65;18.63;;;3.70;99.90;;;;;;5021589;28;20076;-73
2022/04/05 02:38:52;;;;;;;20.25;18.30;;;3.70;99.90;;;;;;5045383;28;20021;-73
2022/04/05 02:41:17;;;;;;;22.80;19.13;;;3.80;99.90;;;;;;5020657;28;20101;-71
2022/04/05 02:43:44;;;;;;;20.38;18.42;;;3.80;99.90;;;;;;5013489;28;20513;-71
2022/04/05 02:46:11;;;;;;;20.42;18.55;;;3.90;99.90;;;;;;5013241;28;20025;-72
2022/04/05 02:48:43;;;;;;;21.75;19.65;;;3.70;99.90;;;;;;5013349;28;20028;-72
2022/04/05 02:51:12;;;;;;;19.83;17.85;;;3.90;99.90;;;;;;5013076;28;20044;-72
2022/04/05 02:53:37;;;;;;;20.08;17.80;;;3.90;99.90;;;;;;5013189;28;20472;-73
2022/04/05 02:56:03;;;;;;;18.95;17.05;;;3.90;99.90;;;;;;5013163;28;20044;-71
2022/04/05 02:58:29;;;;;;;19.33;17.38;;;3.90;99.90;;;;;;5013292;28;20022;-73
2022/04/05 03:00:55;;;;;;;20.13;17.55;;;3.90;99.90;;;;;;4995278;28;20117;-73
2022/04/05 03:03:21;;;;;;;19.33;17.52;;;3.90;99.90;;;;;;5013177;28;20084;-73
2022/04/05 03:05:47;;;;;;;19.98;17.85;;;3.90;99.90;;;;;;5012216;28;20030;-72
2022/04/05 03:08:12;;;;;;;19.95;17.95;;;3.80;99.90;;;;;;5013049;28;20018;-71
2022/04/05 03:10:38;;;;;;;20.15;18.15;;;3.80;99.90;;;;;;4995038;28;20084;-72
2022/04/05 03:13:04;;;;;;;20.92;18.80;;;3.80;99.90;;;;;;5012941;28;20050;-72
2022/04/05 03:15:29;;;;;;;22.20;20.10;;;3.70;99.90;;;;;;5016352;28;20025;-72
2022/04/05 03:17:55;;;;;;;21.95;19.75;;;3.70;99.90;;;;;;5037944;28;20109;-72
2022/04/05 03:20:21;;;;;;;22.25;19.65;;;3.70;99.90;;;;;;5016262;28;20022;-70
2022/04/05 03:22:47;;;;;;;22.30;19.92;;;3.70;99.90;;;;;;5038187;28;20029;-70
2022/04/05 03:25:12;;;;;;;21.70;19.50;;;3.70;99.90;;;;;;5042009;28;20017;-71
2022/04/05 03:27:42;;;;;;;24.38;21.98;;;3.60;99.90;;;;;;5026754;28;20392;-71
2022/04/05 03:30:13;;;;;;;21.88;19.58;;;3.60;99.90;;;;;;4995415;28;20479;-71
2022/04/05 03:32:39;;;;;;;22.00;19.80;;;3.60;99.90;;;;;;5033296;28;20017;-71
2022/04/05 03:35:06;;;;;;;21.45;19.35;;;3.70;99.90;;;;;;5018133;28;20026;-71
2022/04/05 03:37:32;;;;;;;21.92;19.75;;;3.60;99.90;;;;;;5012511;28;20080;-71
2022/04/05 03:39:58;;;;;;;21.60;19.40;;;3.60;99.90;;;;;;5012804;28;20029;-71
2022/04/05 03:42:24;;;;;;;22.60;20.30;;;3.60;99.90;;;;;;4994715;28;20487;-71
2022/04/05 03:44:49;;;;;;;22.85;20.42;;;3.70;99.90;;;;;;5012196;28;20041;-71
2022/04/05 03:47:15;;;;;;;21.60;19.38;;;3.70;99.90;;;;;;5012765;28;20030;-73
2022/04/05 03:49:41;;;;;;;21.38;19.13;;;3.60;99.90;;;;;;5012185;28;20050;-72
2022/04/05 03:52:07;;;;;;;22.58;20.17;;;3.70;99.90;;;;;;5012040;28;20383;-73
2022/04/05 03:54:32;;;;;;;21.58;19.45;;;3.70;99.90;;;;;;5012172;28;20029;-72
2022/04/05 03:56:58;;;;;;;21.90;19.67;;;3.90;99.90;;;;;;5014205;28;20036;-72
2022/04/05 03:59:24;;;;;;;20.90;18.77;;;3.60;99.90;;;;;;5038215;28;20028;-73
2022/04/05 04:01:49;;;;;;;18.63;16.67;;;3.70;99.90;;;;;;5027934;28;20104;-73
2022/04/05 04:04:15;;;;;;;20.05;18.15;;;3.80;99.90;;;;;;5012097;28;20037;-73
2022/04/05 04:06:40;;;;;;;21.05;18.85;;;3.70;99.90;;;;;;5032430;28;20078;-73
2022/04/05 04:09:06;;;;;;;20.63;18.63;;;3.90;99.90;;;;;;5029601;28;20026;-73
2022/04/05 04:11:31;;;;;;;19.83;17.83;;;3.80;99.90;;;;;;5030807;28;20075;-73
2022/04/05 04:13:58;;;;;;;19.85;17.95;;;3.80;99.90;;;;;;5018258;28;20454;-72
2022/04/05 04:16:24;;;;;;;19.17;17.27;;;3.70;99.90;;;;;;5057733;23;20053;-73
2022/04/05 04:18:49;;;;;;;18.95;17.05;;;3.80;99.90;;;;;;5020602;28;20021;-74
2022/04/05 04:21:15;;;;;;;17.73;15.88;;;3.90;99.90;;;;;;5039282;28;20072;-73
2022/04/05 04:23:44;;;;;;;18.77;16.88;;;3.90;99.90;;;;;;5031738;28;20018;-73
2022/04/05 04:26:10;;;;;;;18.48;16.67;;;3.90;99.90;;;;;;5009185;28;20057;-74
2022/04/05 04:28:35;;;;;;;18.08;16.25;;;3.80;99.90;;;;;;5045135;28;20438;-74
2022/04/05 04:31:01;;;;;;;17.95;16.17;;;3.90;99.90;;;;;;5043150;28;20431;-74
2022/04/05 04:33:26;;;;;;;17.60;15.73;;;4.00;99.90;;;;;;5028856;28;20025;-75
2022/04/05 04:35:53;;;;;;;18.45;16.48;;;4.00;99.90;;;;;;5025969;28;20041;-75
2022/04/05 04:38:18;;;;;;;19.65;17.77;;;4.00;99.90;;;;;;5020696;28;20052;-74
2022/04/05 04:40:50;;;;;;;34.95;29.48;;;3.90;99.90;;;;;;5022167;28;20495;-73
2022/04/05 04:43:16;;;;;;;33.92;30.30;;;4.00;99.90;;;;;;5044860;28;20080;-73
2022/04/05 04:45:42;;;;;;;34.55;30.90;;;4.00;99.90;;;;;;5031377;28;20104;-73
2022/04/05 04:48:08;;;;;;;31.10;27.85;;;4.10;99.90;;;;;;5044544;28;20448;-73
2022/04/05 04:50:33;;;;;;;43.90;38.97;;;4.10;99.90;;;;;;5031272;28;20018;-74
2022/04/05 04:52:59;;;;;;;57.63;49.75;;;4.10;99.90;;;;;;5027246;28;20399;-73
2022/04/05 04:55:25;;;;;;;16.63;14.60;;;4.10;99.90;;;;;;5046483;28;20025;-73
2022/04/05 04:57:51;;;;;;;17.92;16.23;;;4.10;99.90;;;;;;5037719;28;20044;-73
2022/04/05 05:00:17;;;;;;;17.13;15.43;;;4.10;99.90;;;;;;5039189;28;20037;-73
2022/04/05 05:02:52;;;;;;;18.45;16.63;;;4.10;99.90;;;;;;5049878;28;20025;-73
2022/04/05 05:05:18;;;;;;;18.17;16.38;;;4.00;99.90;;;;;;5037752;28;20164;-75
2022/04/05 05:07:44;;;;;;;19.33;15.75;;;4.10;99.90;;;;;;5044563;28;20025;-73
2022/04/05 05:10:11;;;;;;;18.67;16.77;;;4.00;99.90;;;;;;5044419;28;20032;-73
2022/04/05 05:12:40;;;;;;;18.00;16.10;;;4.10;99.90;;;;;;5037992;28;20024;-74
2022/04/05 05:15:10;;;;;;;17.58;15.82;;;4.00;99.90;;;;;;5019814;28;20029;-73
2022/04/05 05:17:36;;;;;;;18.88;16.95;;;4.00;99.90;;;;;;5054208;28;20028;-73
2022/04/05 05:20:03;;;;;;;17.27;15.48;;;4.00;99.90;;;;;;5053969;28;20462;-73
2022/04/05 05:22:29;;;;;;;18.65;16.75;;;4.00;99.90;;;;;;5013610;28;20434;-73
2022/04/05 05:24:54;;;;;;;18.50;16.65;;;4.20;99.90;;;;;;5031178;28;20022;-73
2022/04/05 05:27:19;;;;;;;19.17;17.13;;;4.10;99.90;;;;;;5039283;28;20025;-73
2022/04/05 05:29:45;;;;;;;19.33;17.35;;;4.00;99.90;;;;;;5033171;28;20558;-73
2022/04/05 05:32:11;;;;;;;17.52;15.73;;;4.00;99.90;;;;;;5045134;28;20025;-73
2022/04/05 05:34:36;;;;;;;19.60;17.13;;;4.00;99.90;;;;;;5039423;28;20025;-73
2022/04/05 05:37:03;;;;;;;18.00;16.20;;;4.00;99.90;;;;;;5024950;28;20053;-73
2022/04/05 05:39:28;;;;;;;17.02;15.23;;;4.00;99.90;;;;;;5023388;28;20018;-73
2022/04/05 05:41:54;;;;;;;16.95;15.30;;;4.00;99.90;;;;;;5028914;28;20017;-73
2022/04/05 05:44:20;;;;;;;18.17;15.27;;;4.10;99.90;;;;;;5044329;28;20031;-73
2022/04/05 05:46:46;;;;;;;16.75;15.15;;;4.10;99.90;;;;;;5054164;28;20104;-73
2022/04/05 05:49:11;;;;;;;16.75;15.05;;;4.10;99.90;;;;;;5058156;28;20052;-73
2022/04/05 05:51:37;;;;;;;17.30;15.65;;;4.00;99.90;;;;;;5037091;28;20025;-74
2022/04/05 05:54:02;;;;;;;18.38;16.60;;;4.10;99.90;;;;;;5040966;28;20029;-73
2022/04/05 05:56:28;;;;;;;18.30;15.73;;;4.00;99.90;;;;;;5046348;28;20021;-73
2022/04/05 05:58:53;;;;;;;16.92;15.20;;;4.00;99.90;;;;;;5016504;28;20112;-73
2022/04/05 06:01:20;;;;;;;18.05;16.23;;;4.00;99.90;;;;;;5032769;28;20355;-73
2022/04/05 06:03:46;;;;;;;19.20;16.17;;;4.00;99.90;;;;;;5045624;28;20036;-73
2022/04/05 06:06:11;;;;;;;17.98;15.93;;;4.00;99.90;;;;;;5035939;28;20026;-73
2022/04/05 06:08:37;;;;;;;16.40;14.77;;;4.10;99.90;;;;;;5051295;28;20423;-73
2022/04/05 06:11:02;;;;;;;17.63;15.95;;;4.10;99.90;;;;;;5054371;28;20549;-73
2022/04/05 06:13:28;;;;;;;16.75;15.07;;;4.10;99.90;;;;;;5033888;28;20049;-73
2022/04/05 06:15:53;;;;;;;17.52;15.82;;;4.10;99.90;;;;;;5041149;28;20379;-73
2022/04/05 06:18:19;;;;;;;18.00;16.23;;;4.10;99.90;;;;;;5036015;28;20116;-73
2022/04/05 06:20:44;;;;;;;19.45;17.27;;;4.00;99.90;;;;;;5053741;28;20033;-73
2022/04/05 06:23:10;;;;;;;19.85;17.55;;;3.90;99.90;;;;;;5054201;28;20389;-73
2022/04/05 06:25:38;;;;;;;18.48;16.38;;;4.00;99.90;;;;;;5053041;28;20462;-73
2022/04/05 06:28:06;;;;;;;18.85;16.95;;;4.00;99.90;;;;;;5040325;28;20018;-73
2022/04/05 06:30:34;;;;;;;20.52;17.92;;;4.00;99.90;;;;;;5054933;28;20095;-73
2022/04/05 06:33:07;;;;;;;17.90;16.10;;;4.00;99.90;;;;;;5054100;28;20044;-73
2022/04/05 06:35:34;;;;;;;19.00;17.00;;;4.00;99.90;;;;;;5041345;28;20021;-73
2022/04/05 06:37:59;;;;;;;18.92;17.00;;;4.00;99.90;;;;;;5059373;28;20021;-73
2022/04/05 06:40:25;;;;;;;19.67;17.63;;;4.00;99.90;;;;;;5056243;28;20031;-73
2022/04/05 06:42:50;;;;;;;20.48;18.27;;;4.00;99.90;;;;;;5048255;28;20032;-75
2022/04/05 06:45:22;;;;;;;21.17;18.92;;;4.00;99.90;;;;;;5024290;28;20429;-74
2022/04/05 06:47:48;;;;;;;19.70;17.70;;;4.00;99.90;;;;;;5052915;28;20025;-72
2022/04/05 06:50:20;;;;;;;19.90;17.90;;;4.10;99.90;;;;;;5052965;28;20037;-72
2022/04/05 06:52:46;;;;;;;20.27;18.17;;;4.00;99.90;;;;;;5050769;28;20768;-73
2022/04/05 06:55:12;;;;;;;20.60;18.42;;;4.00;99.90;;;;;;5034980;28;20122;-73
2022/04/05 06:57:38;;;;;;;19.20;17.27;;;4.00;99.90;;;;;;5047949;28;20498;-73
2022/04/05 07:00:06;;;;;;;20.40;17.13;;;4.00;99.90;;;;;;5052816;28;20028;-73
2022/04/05 07:02:32;;;;;;;19.83;17.92;;;4.10;99.90;;;;;;5045650;28;20491;-73
2022/04/05 07:04:57;;;;;;;25.05;22.35;;;4.10;99.90;;;;;;5052588;28;20110;-73
2022/04/05 07:07:23;;;;;;;18.75;16.83;;;4.10;99.90;;;;;;5048722;28;20100;-73
2022/04/05 07:09:48;;;;;;;19.60;17.60;;;4.10;99.90;;;;;;5049379;28;20538;-73
2022/04/05 07:12:14;;;;;;;17.88;15.95;;;4.10;99.90;;;;;;5032917;28;20033;-74
2022/04/05 07:14:39;;;;;;;20.02;17.95;;;4.00;99.90;;;;;;5052569;28;20025;-73
2022/04/05 07:17:05;;;;;;;19.38;17.42;;;4.20;99.90;;;;;;5046673;28;20510;-73
2022/04/05 07:19:30;;;;;;;19.60;17.60;;;4.10;99.90;;;;;;5041643;28;20444;-73
2022/04/05 07:21:56;;;;;;;20.98;18.70;;;4.10;99.90;;;;;;5046275;28;20096;-72
2022/04/05 07:24:21;;;;;;;20.75;18.65;;;4.10;99.90;;;;;;5054574;28;20024;-73
2022/04/05 07:26:47;;;;;;;19.30;17.33;;;4.20;99.90;;;;;;5050587;28;20027;-73
2022/04/05 07:29:12;;;;;;;19.83;17.83;;;4.20;99.90;;;;;;5032935;28;20025;-73
2022/04/05 07:31:38;;;;;;;19.63;17.63;;;4.10;99.90;;;;;;5050445;28;20432;-73
2022/04/05 07:34:04;;;;;;;18.90;17.00;;;4.20;99.90;;;;;;5042382;28;20048;-73
2022/04/05 07:36:31;;;;;;;18.90;17.00;;;4.20;99.90;;;;;;5047788;28;20033;-73
2022/04/05 07:38:57;;;;;;;18.10;16.30;;;4.20;99.90;;;;;;5051929;28;20050;-73
2022/04/05 07:41:23;;;;;;;19.40;17.50;;;4.30;99.90;;;;;;5047777;28;20030;-73
2022/04/05 07:43:49;;;;;;;19.45;17.55;;;4.20;99.90;;;;;;5051792;28;20055;-73
2022/04/05 07:46:14;;;;;;;19.45;17.55;;;4.30;99.90;;;;;;5051820;28;20032;-73
2022/04/05 07:48:40;;;;;;;16.98;15.35;;;4.30;99.90;;;;;;5051894;28;20506;-73
2022/04/05 07:51:06;;;;;;;17.02;15.43;;;4.40;99.90;;;;;;5050491;28;20028;-73
2022/04/05 07:53:32;;;;;;;17.30;15.70;;;4.30;99.90;;;;;;5033710;28;20853;-73
2022/04/05 07:55:58;;;;;;;18.25;16.50;;;4.40;99.90;;;;;;5033742;28;20055;-73
2022/04/05 07:58:25;;;;;;;19.02;17.13;;;4.40;99.90;;;;;;5032192;28;20036;-73
2022/04/05 08:00:51;;;;;;;18.95;17.13;;;4.40;99.90;;;;;;5049494;28;20098;-73
2022/04/05 08:03:17;;;;;;;18.75;16.85;;;4.40;99.90;;;;;;5051892;28;20506;-72
2022/04/05 08:05:43;;;;;;;17.88;16.10;;;4.50;99.90;;;;;;5047978;28;20079;-73
2022/04/05 08:08:10;;;;;;;15.23;13.82;;;4.40;99.90;;;;;;5039904;28;20021;-74
2022/04/05 08:10:35;;;;;;;17.20;15.60;;;4.50;99.90;;;;;;5053422;28;20057;-73
2022/04/05 08:13:01;;;;;;;14.93;13.45;;;4.50;99.90;;;;;;5035383;28;20052;-73
2022/04/05 08:15:27;;;;;;;16.00;14.38;;;4.50;99.90;;;;;;5057478;28;20028;-73
2022/04/05 08:17:53;;;;;;;15.05;13.55;;;4.50;99.90;;;;;;5051402;28;20045;-73
2022/04/05 08:20:20;;;;;;;15.20;13.80;;;4.60;99.90;;;;;;5044459;28;20099;-73
2022/04/05 08:22:46;;;;;;;15.00;13.60;;;4.60;99.90;;;;;;5051568;28;20037;-73
2022/04/05 08:25:15;;;;;;;15.82;14.30;;;4.60;99.90;;;;;;5028235;28;20075;-73
2022/04/05 08:27:42;;;;;;;14.82;13.32;;;4.70;99.90;;;;;;5041886;28;20029;-74
2022/04/05 08:30:10;;;;;;;14.90;13.57;;;4.60;99.90;;;;;;5030038;28;20087;-73
2022/04/05 08:32:37;;;;;;;14.70;13.30;;;4.60;99.90;;;;;;5049657;28;20044;-72
2022/04/05 08:35:04;;;;;;;14.10;12.85;;;4.70;99.90;;;;;;5049000;28;20032;-73
2022/04/05 08:37:29;;;;;;;14.15;12.85;;;4.70;99.90;;;;;;5047393;28;20482;-73
2022/04/05 08:39:55;;;;;;;13.38;12.18;;;4.70;99.90;;;;;;5047089;28;20028;-73
2022/04/05 08:42:23;;;;;;;13.00;11.80;;;4.70;99.90;;;;;;5045636;28;20106;-73
2022/04/05 08:44:49;;;;;;;13.95;12.65;;;4.70;99.90;;;;;;5044594;28;20044;-73
2022/04/05 08:47:21;;;;;;;12.85;11.73;;;4.80;99.90;;;;;;5031766;28;20024;-73
2022/04/05 08:49:48;;;;;;;12.20;11.10;;;4.80;99.90;;;;;;5050556;28;20025;-73
2022/04/05 08:52:13;;;;;;;12.13;11.02;;;4.80;99.90;;;;;;5044821;28;20112;-73
2022/04/05 08:54:39;;;;;;;11.93;10.75;;;4.80;99.90;;;;;;5049212;28;20115;-73
2022/04/05 08:57:04;;;;;;;13.13;10.98;;;4.80;99.90;;;;;;5051499;28;20032;-73
2022/04/05 08:59:31;;;;;;;13.20;12.10;;;4.90;99.90;;;;;;5049001;28;20553;-73
2022/04/05 09:01:57;;;;;;;12.68;11.57;;;4.90;99.90;;;;;;5051647;28;20029;-73
2022/04/05 09:04:22;;;;;;;12.13;10.95;;;4.90;99.90;;;;;;5049741;28;20051;-73
2022/04/05 09:06:48;;;;;;;11.57;10.57;;;5.00;99.90;;;;;;5036417;28;20079;-73
2022/04/05 09:09:16;;;;;;;11.07;10.10;;;4.90;99.90;;;;;;5055597;28;20025;-73
2022/04/05 09:11:47;;;;;;;10.90;9.90;;;4.90;99.90;;;;;;5051034;28;20104;-73
2022/04/05 09:14:14;;;;;;;10.50;9.40;;;5.10;99.90;;;;;;5035916;28;20381;-73
2022/04/05 09:16:40;;;;;;;10.68;9.77;;;5.00;99.90;;;;;;5053481;28;20060;-73
2022/04/05 09:19:13;;;;;;;11.35;10.23;;;5.10;99.90;;;;;;5052230;28;20059;-73
2022/04/05 09:21:53;;;;;;;9.45;8.50;;;5.00;99.90;;;;;;5052288;28;20032;-73
2022/04/05 09:24:19;;;;;;;9.35;8.55;;;5.10;99.90;;;;;;5054290;28;20033;-73
2022/04/05 09:26:45;;;;;;;10.32;9.32;;;5.10;99.90;;;;;;5053696;28;20089;-73
2022/04/05 09:29:10;;;;;;;10.15;9.25;;;5.20;99.90;;;;;;5033644;28;20429;-73
2022/04/05 09:31:50;;;;;;;10.60;9.68;;;5.20;99.90;;;;;;5053923;28;20550;-73
2022/04/05 09:34:19;;;;;;;9.90;8.90;;;5.10;99.90;;;;;;5054316;28;20013;-73
2022/04/05 09:36:48;;;;;;;10.00;9.10;;;5.20;99.90;;;;;;5036460;28;20025;-73
2022/04/05 09:39:17;;;;;;;10.05;9.10;;;5.30;99.90;;;;;;5054375;28;20029;-74
2022/04/05 09:41:59;;;;;;;9.77;8.88;;;5.30;99.90;;;;;;5042511;28;20017;-73
2022/04/05 09:44:39;;;;;;;9.35;8.55;;;5.30;99.90;;;;;;5052184;28;20021;-73
2022/04/05 09:47:07;;;;;;;10.23;9.23;;;5.30;99.90;;;;;;5054098;28;20074;-73
2022/04/05 09:49:35;;;;;;;10.30;9.40;;;5.60;99.90;;;;;;5046814;28;20064;-73
2022/04/05 09:52:02;;;;;;;10.20;9.30;;;5.40;99.90;;;;;;5033844;28;20525;-73
2022/04/05 09:54:30;;;;;;;9.68;8.77;;;5.40;99.90;;;;;;5049380;28;20378;-73
2022/04/05 09:57:03;;;;;;;9.50;8.52;;;5.40;99.90;;;;;;5053926;28;20028;-73
2022/04/05 09:59:43;;;;;;;10.38;9.45;;;5.50;99.90;;;;;;5052178;28;20566;-73
2022/04/05 10:02:17;;;;;;;9.65;8.75;;;5.50;99.90;;;;;;5054117;28;20529;-73
2022/04/05 10:05:01;;;;;;;8.57;7.72;;;5.50;99.90;;;;;;5055408;28;20057;-73
2022/04/05 10:07:29;;;;;;;9.32;8.27;;;5.60;99.90;;;;;;5050153;28;20021;-73
2022/04/05 10:09:55;;;;;;;8.48;7.78;;;5.60;99.90;;;;;;5050145;28;20023;-73
2022/04/05 10:12:21;;;;;;;8.32;7.63;;;5.60;99.90;;;;;;5051901;28;20035;-73
2022/04/05 10:14:46;;;;;;;8.63;7.85;;;5.60;99.90;;;;;;5033209;28;20033;-73
2022/04/05 10:17:13;;;;;;;8.15;7.45;;;5.70;99.90;;;;;;5048916;28;20033;-73
2022/04/05 10:19:43;;;;;;;9.00;8.10;;;5.80;99.90;;;;;;5035133;28;20027;-73
2022/04/05 10:22:10;;;;;;;7.68;6.97;;;5.80;99.90;;;;;;5049490;28;20033;-73
2022/04/05 10:24:35;;;;;;;7.75;7.05;;;5.80;99.90;;;;;;5053510;28;20021;-73
2022/04/05 10:27:04;;;;;;;8.02;7.32;;;5.80;99.90;;;;;;5035443;28;20135;-73
2022/04/05 10:29:30;;;;;;;7.95;7.25;;;5.80;99.90;;;;;;5051048;28;20017;-73
2022/04/05 10:31:57;;;;;;;7.88;7.28;;;5.80;99.90;;;;;;5053709;28;20051;-73
2022/04/05 10:34:34;;;;;;;7.70;7.10;;;5.80;99.90;;;;;;5035552;28;20394;-73
2022/04/05 10:37:28;;;;;;;8.27;7.57;;;5.90;99.90;;;;;;5054175;28;20035;-73
2022/04/05 10:39:56;;;;;;;8.07;7.25;;;5.90;99.90;;;;;;5053325;28;20025;-73
2022/04/05 10:42:25;;;;;;;7.55;6.85;;;6.00;99.90;;;;;;5053373;28;20032;-73
2022/04/05 10:45:18;;;;;;;7.07;6.47;;;5.90;99.90;;;;;;5034750;28;20037;-73
2022/04/05 10:48:17;;;;;;;7.40;6.68;;;5.90;99.90;;;;;;5050328;28;20087;-73
2022/04/05 10:51:05;;;;;;;7.55;6.47;;;6.00;99.90;;;;;;5032487;28;20013;-73
2022/04/05 10:53:32;;;;;;;7.43;6.82;;;6.00;99.90;;;;;;5019530;28;20040;-73
2022/04/05 10:56:03;;;;;;;7.57;6.88;;;6.00;99.90;;;;;;5033428;28;20060;-74
2022/04/05 10:58:38;;;;;;;8.27;7.47;;;6.00;99.90;;;;;;5049673;28;20105;-73
2022/04/05 11:01:18;;;;;;;7.90;7.20;;;6.00;99.90;;;;;;5052248;28;20375;-74
2022/04/05 11:04:09;;;;;;;7.40;6.80;;;6.00;99.90;;;;;;5032966;28;20504;-75
2022/04/05 11:07:02;;;;;;;7.72;7.03;;;6.10;99.90;;;;;;5051202;28;20029;-73
2022/04/05 11:09:29;;;;;;;9.65;7.40;;;6.10;99.90;;;;;;5033671;28;20027;-73
2022/04/05 11:11:56;;;;;;;7.50;6.80;;;6.10;99.90;;;;;;5033837;28;20190;-74
2022/04/05 11:14:49;;;;;;;9.05;8.25;;;6.10;99.90;;;;;;5052823;28;20441;-73
2022/04/05 11:17:16;;;;;;;8.50;7.70;;;6.10;99.90;;;;;;5049577;28;20021;-74
2022/04/05 11:19:44;;;;;;;8.27;7.47;;;6.20;99.90;;;;;;5033702;28;20040;-74
2022/04/05 11:22:19;;;;;;;8.57;7.25;;;6.20;99.90;;;;;;5047004;28;20101;-72
2022/04/05 11:25:04;;;;;;;8.43;7.63;;;6.20;99.90;;;;;;5046379;28;20021;-74
2022/04/05 11:27:31;;;;;;;8.30;7.05;;;6.10;99.90;;;;;;5034333;28;20025;-74
2022/04/05 11:30:22;;;;;;;8.05;7.32;;;6.20;99.90;;;;;;5048537;28;20021;-74
2022/04/05 11:33:06;;;;;;;8.30;7.50;;;6.10;99.90;;;;;;5055047;28;20104;-73
2022/04/05 11:35:35;;;;;;;8.75;7.95;;;6.10;99.90;;;;;;5052033;28;20063;-74
2022/04/05 11:38:01;;;;;;;8.98;8.18;;;6.10;99.90;;;;;;5028526;28;20095;-73
2022/04/05 11:40:26;;;;;;;8.73;7.82;;;6.10;99.90;;;;;;5050427;28;20390;-73
2022/04/05 11:42:52;;;;;;;8.70;7.90;;;6.10;99.90;;;;;;5051908;28;20033;-74
2022/04/05 11:45:19;;;;;;;8.43;7.63;;;6.20;99.90;;;;;;5034339;28;20025;-73
2022/04/05 11:47:55;;;;;;;8.70;7.93;;;6.10;99.90;;;;;;5032418;28;20064;-74
2022/04/05 11:50:21;;;;;;;;;;;6.10;99.90;;;;;;5044260;28;20040;-74
2022/04/05 11:52:47;;;;;;;8.45;7.75;;;6.10;99.90;;;;;;5051904;28;19905;-73
2022/04/05 11:58:03;;;;;;;9.43;8.50;;;6.20;99.90;;;;;;5045866;28;20048;-73
2022/04/05 12:00:29;;;;;;;9.02;8.23;;;6.20;99.90;;;;;;5050487;28;20486;-73
2022/04/05 12:03:02;;;;;;;8.15;7.45;;;6.20;99.90;;;;;;5051188;28;20021;-73
2022/04/05 12:05:45;;;;;;;9.38;8.57;;;6.20;99.90;;;;;;5040219;28;20025;-72
2022/04/05 12:08:15;;;;;;;9.80;8.95;;;6.30;99.90;;;;;;5052060;28;20024;-73
2022/04/05 12:10:41;;;;;;;8.70;7.93;;;6.30;99.90;;;;;;5049532;28;20028;-73
2022/04/05 12:13:07;;;;;;;9.38;8.45;;;6.40;99.90;;;;;;5034640;28;20541;-73
2022/04/05 12:15:37;;;;;;;8.95;8.05;;;6.50;99.90;;;;;;5032084;28;20163;-73
2022/04/05 12:18:19;;;;;;;9.57;8.68;;;6.60;99.90;;;;;;5033162;28;20036;-74
2022/04/05 12:21:01;;;;;;;8.60;7.70;;;6.60;99.90;;;;;;5048784;28;20541;-73
2022/04/05 12:23:41;;;;;;;8.98;8.20;;;6.70;99.90;;;;;;5049956;28;20036;-72
2022/04/05 12:26:23;;;;;;;8.73;7.93;;;6.80;99.90;;;;;;5051335;28;20045;-73
2022/04/05 12:28:54;;;;;;;8.80;8.02;;;6.80;99.90;;;;;;5020945;28;20020;-74
2022/04/05 12:31:22;;;;;;;11.20;10.20;;;6.90;99.90;;;;;;5032155;28;20041;-73
2022/04/05 12:33:55;;;;;;;8.90;8.15;;;6.90;99.90;;;;;;5032246;28;20027;-74
2022/04/05 12:36:22;;;;;;;10.48;9.55;;;7.00;99.90;;;;;;5046308;28;20384;-73
2022/04/05 12:38:48;;;;;;;10.30;8.77;;;7.10;99.90;;;;;;5051112;28;20112;-73
2022/04/05 12:41:18;;;;;;;8.93;8.02;;;7.10;99.90;;;;;;5054644;28;20029;-73
2022/04/05 12:43:46;;;;;;;9.75;8.65;;;7.10;99.90;;;;;;5053859;28;20083;-73
2022/04/05 12:46:13;;;;;;;12.70;11.50;;;7.10;99.90;;;;;;5056619;28;20033;-73
2022/04/05 12:48:41;;;;;;;10.63;9.60;;;7.10;99.90;;;;;;5037644;28;20041;-73